Urb Hostos, Puerto Rico
Current Conditions -  °F | °C
As of 11:50 PM on Friday 31 Oct 2014 (Local Time) from TJBQ Reporting Station
Clear Clear  
Wind Chill: 73°   Ceiling: Unl
Heat Index: 73°   Visibility: 10mi
Dew Point: 73°   Wind: 3mph
Humidity: 100%   Direction: 130°SE
Pressure: 29.95"   Gusts: NA
Location:  18.203°N, 67.14°W
Report Text: TJBQ 010350Z 13003KT 10SM SKC 23/23 A2995 RMK RWY08 -ATIS C
Loading
Personal Weather Stations






























Interactive Weather Map
Tropical Storm Tracking
New forecast layout! Learn more

10-Day Weather Forecast

Advertisements
Track Severe Weather on mobile